sensor_id;sensor_type;location;lat;lon;timestamp;pressure;altitude;pressure_sealevel;temperature;humidity
77092;BME280;66032;48.252;11.638;2023-03-11T00:00:35;94642.41;;;2.60;73.26
77092;BME280;66032;48.252;11.638;2023-03-11T00:03:04;94622.88;;;2.55;70.54
77092;BME280;66032;48.252;11.638;2023-03-11T00:05:38;94636.66;;;2.47;69.95
77092;BME280;66032;48.252;11.638;2023-03-11T00:08:06;94655.38;;;2.43;71.49
77092;BME280;66032;48.252;11.638;2023-03-11T00:10:40;94642.88;;;2.37;69.40
77092;BME280;66032;48.252;11.638;2023-03-11T00:13:09;94617.03;;;2.34;71.09
77092;BME280;66032;48.252;11.638;2023-03-11T00:15:38;94626.94;;;2.30;72.14
77092;BME280;66032;48.252;11.638;2023-03-11T00:18:05;94619.66;;;2.24;70.43
77092;BME280;66032;48.252;11.638;2023-03-11T00:20:35;94643.72;;;2.18;72.67
77092;BME280;66032;48.252;11.638;2023-03-11T00:23:04;94645.94;;;2.13;73.06
77092;BME280;66032;48.252;11.638;2023-03-11T00:25:33;94653.38;;;2.08;71.33
77092;BME280;66032;48.252;11.638;2023-03-11T00:28:03;94658.19;;;2.03;73.37
77092;BME280;66032;48.252;11.638;2023-03-11T00:30:30;94672.75;;;1.96;67.49
77092;BME280;66032;48.252;11.638;2023-03-11T00:32:58;94674.41;;;1.97;69.58
77092;BME280;66032;48.252;11.638;2023-03-11T00:35:29;94664.22;;;1.94;66.98
77092;BME280;66032;48.252;11.638;2023-03-11T00:37:59;94685.00;;;1.95;67.73
77092;BME280;66032;48.252;11.638;2023-03-11T00:40:29;94696.81;;;1.89;69.34
77092;BME280;66032;48.252;11.638;2023-03-11T00:42:57;94700.41;;;1.88;67.43
77092;BME280;66032;48.252;11.638;2023-03-11T00:45:25;94704.09;;;1.86;67.14
77092;BME280;66032;48.252;11.638;2023-03-11T00:47:53;94719.09;;;1.84;70.53
77092;BME280;66032;48.252;11.638;2023-03-11T00:50:24;94714.53;;;1.86;68.88
77092;BME280;66032;48.252;11.638;2023-03-11T00:52:52;94704.78;;;1.78;67.95
77092;BME280;66032;48.252;11.638;2023-03-11T00:55:23;94715.66;;;1.74;70.78
77092;BME280;66032;48.252;11.638;2023-03-11T00:57:53;94717.81;;;1.69;70.43
77092;BME280;66032;48.252;11.638;2023-03-11T01:00:23;94713.25;;;1.61;71.79
77092;BME280;66032;48.252;11.638;2023-03-11T01:02:52;94734.44;;;1.58;73.87
77092;BME280;66032;48.252;11.638;2023-03-11T01:05:26;94732.09;;;1.55;70.39
77092;BME280;66032;48.252;11.638;2023-03-11T01:07:54;94739.34;;;1.51;72.91
77092;BME280;66032;48.252;11.638;2023-03-11T01:10:21;94734.81;;;1.53;73.49
77092;BME280;66032;48.252;11.638;2023-03-11T01:12:50;94738.69;;;1.49;74.92
77092;BME280;66032;48.252;11.638;2023-03-11T01:15:23;94722.69;;;1.43;72.43
77092;BME280;66032;48.252;11.638;2023-03-11T01:17:51;94724.88;;;1.38;72.92
77092;BME280;66032;48.252;11.638;2023-03-11T01:20:20;94718.00;;;1.37;72.13
77092;BME280;66032;48.252;11.638;2023-03-11T01:22:48;94710.72;;;1.31;70.42
77092;BME280;66032;48.252;11.638;2023-03-11T01:25:17;94714.84;;;1.33;71.96
77092;BME280;66032;48.252;11.638;2023-03-11T01:27:45;94721.41;;;1.28;76.13
77092;BME280;66032;48.252;11.638;2023-03-11T01:30:15;94721.69;;;1.25;70.14
77092;BME280;66032;48.252;11.638;2023-03-11T01:32:44;94737.59;;;1.22;72.60
77092;BME280;66032;48.252;11.638;2023-03-11T01:35:14;94740.22;;;1.22;76.99
77092;BME280;66032;48.252;11.638;2023-03-11T01:37:45;94753.78;;;1.16;73.50
77092;BME280;66032;48.252;11.638;2023-03-11T01:40:17;94757.22;;;1.16;69.23
77092;BME280;66032;48.252;11.638;2023-03-11T01:42:45;94760.50;;;1.18;71.97
77092;BME280;66032;48.252;11.638;2023-03-11T01:48:07;94755.28;;;1.18;71.15
77092;BME280;66032;48.252;11.638;2023-03-11T01:50:39;94758.88;;;1.17;73.62
77092;BME280;66032;48.252;11.638;2023-03-11T01:53:08;94760.22;;;1.11;69.21
77092;BME280;66032;48.252;11.638;2023-03-11T01:55:36;94759.13;;;1.14;68.21
77092;BME280;66032;48.252;11.638;2023-03-11T01:58:08;94767.09;;;1.12;68.55
77092;BME280;66032;48.252;11.638;2023-03-11T02:00:37;94751.56;;;1.11;71.52
77092;BME280;66032;48.252;11.638;2023-03-11T02:03:20;94756.06;;;1.09;73.01
77092;BME280;66032;48.252;11.638;2023-03-11T02:05:52;94763.59;;;1.02;73.85
77092;BME280;66032;48.252;11.638;2023-03-11T02:08:22;94758.78;;;0.98;72.85
77092;BME280;66032;48.252;11.638;2023-03-11T02:10:51;94755.72;;;0.93;70.54
77092;BME280;66032;48.252;11.638;2023-03-11T02:13:19;94754.44;;;0.87;77.67
77092;BME280;66032;48.252;11.638;2023-03-11T02:15:47;94751.41;;;0.82;78.74
77092;BME280;66032;48.252;11.638;2023-03-11T02:18:14;94760.44;;;0.78;74.17
77092;BME280;66032;48.252;11.638;2023-03-11T02:21:02;94757.00;;;0.77;77.23
77092;BME280;66032;48.252;11.638;2023-03-11T02:24:00;94761.50;;;0.75;72.86
77092;BME280;66032;48.252;11.638;2023-03-11T02:29:29;94777.44;;;0.72;76.92
77092;BME280;66032;48.252;11.638;2023-03-11T02:31:58;94766.41;;;0.69;76.94
77092;BME280;66032;48.252;11.638;2023-03-11T02:34:32;94764.06;;;0.66;71.57
77092;BME280;66032;48.252;11.638;2023-03-11T02:37:04;94764.31;;;0.63;73.00
77092;BME280;66032;48.252;11.638;2023-03-11T02:39:41;94772.03;;;0.64;73.78
77092;BME280;66032;48.252;11.638;2023-03-11T02:42:20;94772.56;;;0.68;71.84
77092;BME280;66032;48.252;11.638;2023-03-11T02:45:02;94768.38;;;0.76;69.39
77092;BME280;66032;48.252;11.638;2023-03-11T02:47:32;94771.25;;;0.73;70.93
77092;BME280;66032;48.252;11.638;2023-03-11T02:50:00;94782.06;;;0.69;72.51
77092;BME280;66032;48.252;11.638;2023-03-11T02:52:32;94771.50;;;0.70;70.41
77092;BME280;66032;48.252;11.638;2023-03-11T02:55:00;94785.38;;;0.71;71.68
77092;BME280;66032;48.252;11.638;2023-03-11T02:57:28;94799.34;;;0.70;73.20
77092;BME280;66032;48.252;11.638;2023-03-11T02:59:55;94780.16;;;0.71;70.30
77092;BME280;66032;48.252;11.638;2023-03-11T03:02:22;94784.53;;;0.70;72.25
77092;BME280;66032;48.252;11.638;2023-03-11T03:04:51;94779.22;;;0.72;71.44
77092;BME280;66032;48.252;11.638;2023-03-11T03:07:18;94789.06;;;0.68;74.04
77092;BME280;66032;48.252;11.638;2023-03-11T03:09:45;94793.84;;;0.63;72.37
77092;BME280;66032;48.252;11.638;2023-03-11T03:12:13;94810.41;;;0.62;72.37
77092;BME280;66032;48.252;11.638;2023-03-11T03:14:40;94804.25;;;0.63;68.25
77092;BME280;66032;48.252;11.638;2023-03-11T03:17:09;94813.03;;;0.62;70.75
77092;BME280;66032;48.252;11.638;2023-03-11T03:19:36;94814.94;;;0.60;71.05
77092;BME280;66032;48.252;11.638;2023-03-11T03:22:04;94813.03;;;0.62;68.94
77092;BME280;66032;48.252;11.638;2023-03-11T03:24:31;94824.41;;;0.61;70.28
77092;BME280;66032;48.252;11.638;2023-03-11T03:26:59;94827.47;;;0.66;71.56
77092;BME280;66032;48.252;11.638;2023-03-11T03:29:26;94826.06;;;0.62;70.03
77092;BME280;66032;48.252;11.638;2023-03-11T03:31:53;94819.47;;;0.58;70.65
77092;BME280;66032;48.252;11.638;2023-03-11T03:34:21;94817.81;;;0.57;69.13
77092;BME280;66032;48.252;11.638;2023-03-11T03:36:48;94820.41;;;0.57;70.71
77092;BME280;66032;48.252;11.638;2023-03-11T03:39:17;94816.25;;;0.55;72.57
77092;BME280;66032;48.252;11.638;2023-03-11T03:41:49;94808.84;;;0.50;70.27
77092;BME280;66032;48.252;11.638;2023-03-11T03:44:16;94824.78;;;0.57;72.38
77092;BME280;66032;48.252;11.638;2023-03-11T03:46:45;94837.13;;;0.55;74.19
77092;BME280;66032;48.252;11.638;2023-03-11T03:49:13;94832.28;;;0.50;72.57
77092;BME280;66032;48.252;11.638;2023-03-11T03:51:40;94835.34;;;0.55;70.16
77092;BME280;66032;48.252;11.638;2023-03-11T03:54:28;94837.56;;;0.60;69.99
77092;BME280;66032;48.252;11.638;2023-03-11T03:56:56;94822.75;;;0.60;72.99
77092;BME280;66032;48.252;11.638;2023-03-11T03:59:24;94826.94;;;0.52;74.16
77092;BME280;66032;48.252;11.638;2023-03-11T04:01:55;94827.09;;;0.50;74.88
77092;BME280;66032;48.252;11.638;2023-03-11T04:04:25;94819.09;;;0.52;73.11
77092;BME280;66032;48.252;11.638;2023-03-11T04:06:53;94836.09;;;0.46;76.93
77092;BME280;66032;48.252;11.638;2023-03-11T04:09:20;94835.06;;;0.37;74.74
77092;BME280;66032;48.252;11.638;2023-03-11T04:11:47;94845.91;;;0.43;73.99
77092;BME280;66032;48.252;11.638;2023-03-11T04:14:16;94849.94;;;0.47;71.94
77092;BME280;66032;48.252;11.638;2023-03-11T04:16:51;94855.41;;;0.44;71.40
77092;BME280;66032;48.252;11.638;2023-03-11T04:19:19;94856.72;;;0.38;73.89
77092;BME280;66032;48.252;11.638;2023-03-11T04:21:46;94866.72;;;0.33;78.02
77092;BME280;66032;48.252;11.638;2023-03-11T04:24:13;94859.25;;;0.28;74.86
77092;BME280;66032;48.252;11.638;2023-03-11T04:26:41;94868.38;;;0.23;79.59
77092;BME280;66032;48.252;11.638;2023-03-11T04:29:13;94864.22;;;0.20;74.71
77092;BME280;66032;48.252;11.638;2023-03-11T04:31:46;94873.00;;;0.19;74.14
77092;BME280;66032;48.252;11.638;2023-03-11T04:34:13;94866.13;;;0.18;77.13
77092;BME280;66032;48.252;11.638;2023-03-11T04:36:41;94870.88;;;0.13;76.56
77092;BME280;66032;48.252;11.638;2023-03-11T04:39:10;94857.41;;;0.08;76.19
77092;BME280;66032;48.252;11.638;2023-03-11T04:41:41;94860.34;;;0.15;73.75
77092;BME280;66032;48.252;11.638;2023-03-11T04:44:12;94862.84;;;0.16;77.41
77092;BME280;66032;48.252;11.638;2023-03-11T04:46:40;94863.53;;;0.18;78.31
77092;BME280;66032;48.252;11.638;2023-03-11T04:49:08;94866.72;;;0.22;77.16
77092;BME280;66032;48.252;11.638;2023-03-11T04:51:36;94868.94;;;0.26;74.70
77092;BME280;66032;48.252;11.638;2023-03-11T04:54:05;94877.59;;;0.27;78.74
77092;BME280;66032;48.252;11.638;2023-03-11T04:56:32;94890.41;;;0.30;78.57
77092;BME280;66032;48.252;11.638;2023-03-11T04:59:00;94889.44;;;0.31;79.87
77092;BME280;66032;48.252;11.638;2023-03-11T05:01:29;94896.19;;;0.33;78.74
77092;BME280;66032;48.252;11.638;2023-03-11T05:04:00;94902.94;;;0.36;79.26
77092;BME280;66032;48.252;11.638;2023-03-11T05:06:27;94909.19;;;0.45;82.04
77092;BME280;66032;48.252;11.638;2023-03-11T05:08:55;94906.69;;;0.54;76.76
77092;BME280;66032;48.252;11.638;2023-03-11T05:11:22;94903.47;;;0.62;80.39
77092;BME280;66032;48.252;11.638;2023-03-11T05:13:50;94907.22;;;0.69;78.00
77092;BME280;66032;48.252;11.638;2023-03-11T05:16:18;94910.03;;;0.77;77.93
77092;BME280;66032;48.252;11.638;2023-03-11T05:18:46;94906.81;;;0.85;78.52
77092;BME280;66032;48.252;11.638;2023-03-11T05:21:14;94911.28;;;0.94;81.86
77092;BME280;66032;48.252;11.638;2023-03-11T05:23:42;94916.00;;;1.00;78.23
77092;BME280;66032;48.252;11.638;2023-03-11T05:26:13;94922.50;;;1.05;75.81
77092;BME280;66032;48.252;11.638;2023-03-11T05:28:42;94928.03;;;1.12;77.51
77092;BME280;66032;48.252;11.638;2023-03-11T05:31:10;94928.34;;;1.19;77.26
77092;BME280;66032;48.252;11.638;2023-03-11T05:33:38;94931.03;;;1.28;78.98
77092;BME280;66032;48.252;11.638;2023-03-11T05:36:09;94934.94;;;1.34;77.28
77092;BME280;66032;48.252;11.638;2023-03-11T05:38:40;94940.59;;;1.39;77.96
77092;BME280;66032;48.252;11.638;2023-03-11T05:41:08;94950.81;;;1.42;74.38
77092;BME280;66032;48.252;11.638;2023-03-11T05:43:37;94951.13;;;1.48;75.26
77092;BME280;66032;48.252;11.638;2023-03-11T05:46:04;94953.09;;;1.56;77.68
77092;BME280;66032;48.252;11.638;2023-03-11T05:48:32;94956.06;;;1.72;73.57
77092;BME280;66032;48.252;11.638;2023-03-11T05:50:59;94954.84;;;1.76;73.91
77092;BME280;66032;48.252;11.638;2023-03-11T05:53:26;94958.03;;;1.80;73.77
77092;BME280;66032;48.252;11.638;2023-03-11T05:55:57;94949.81;;;1.84;73.17
77092;BME280;66032;48.252;11.638;2023-03-11T05:58:28;94945.56;;;1.83;70.00
77092;BME280;66032;48.252;11.638;2023-03-11T06:00:55;94952.00;;;1.79;69.47
77092;BME280;66032;48.252;11.638;2023-03-11T06:03:23;94952.00;;;1.79;72.19
77092;BME280;66032;48.252;11.638;2023-03-11T06:05:53;94951.88;;;1.81;74.94
77092;BME280;66032;48.252;11.638;2023-03-11T06:08:21;94960.66;;;1.80;73.06
77092;BME280;66032;48.252;11.638;2023-03-11T06:10:49;94950.19;;;1.80;72.77
77092;BME280;66032;48.252;11.638;2023-03-11T06:13:19;94951.88;;;1.81;72.36
77092;BME280;66032;48.252;11.638;2023-03-11T06:15:49;94956.84;;;1.84;72.41
77092;BME280;66032;48.252;11.638;2023-03-11T06:18:18;94961.09;;;1.85;75.36
77092;BME280;66032;48.252;11.638;2023-03-11T06:20:45;94966.47;;;1.83;72.09
77092;BME280;66032;48.252;11.638;2023-03-11T06:23:12;94978.53;;;1.84;70.05
77092;BME280;66032;48.252;11.638;2023-03-11T06:25:40;94976.38;;;1.89;74.68
77092;BME280;66032;48.252;11.638;2023-03-11T06:28:08;94980.59;;;1.81;69.28
77092;BME280;66032;48.252;11.638;2023-03-11T06:30:35;94980.66;;;1.90;70.51
77092;BME280;66032;48.252;11.638;2023-03-11T06:33:12;94980.78;;;1.89;68.25
77092;BME280;66032;48.252;11.638;2023-03-11T06:35:41;94990.19;;;2.01;69.52
77092;BME280;66032;48.252;11.638;2023-03-11T06:38:09;94993.13;;;2.08;69.50
77092;BME280;66032;48.252;11.638;2023-03-11T06:40:37;94990.25;;;2.11;70.95
77092;BME280;66032;48.252;11.638;2023-03-11T06:43:04;94993.44;;;2.14;73.83
77092;BME280;66032;48.252;11.638;2023-03-11T06:45:36;94991.41;;;2.27;69.26
77092;BME280;66032;48.252;11.638;2023-03-11T06:48:04;95003.00;;;2.35;70.33
77092;BME280;66032;48.252;11.638;2023-03-11T06:50:32;94996.69;;;2.37;71.31
77092;BME280;66032;48.252;11.638;2023-03-11T06:53:01;94999.09;;;2.50;65.53
77092;BME280;66032;48.252;11.638;2023-03-11T06:55:34;94999.69;;;2.63;65.74
77092;BME280;66032;48.252;11.638;2023-03-11T06:58:03;94999.00;;;2.71;65.32
77092;BME280;66032;48.252;11.638;2023-03-11T07:00:31;95005.97;;;2.91;68.23
77092;BME280;66032;48.252;11.638;2023-03-11T07:03:01;95013.69;;;3.12;65.59
77092;BME280;66032;48.252;11.638;2023-03-11T07:05:29;95012.06;;;3.30;65.00
77092;BME280;66032;48.252;11.638;2023-03-11T07:08:01;95014.28;;;3.54;66.56
77092;BME280;66032;48.252;11.638;2023-03-11T07:10:28;95019.09;;;3.87;64.99
77092;BME280;66032;48.252;11.638;2023-03-11T07:12:55;95033.28;;;4.13;64.77
77092;BME280;66032;48.252;11.638;2023-03-11T07:15:23;95029.91;;;4.40;61.74
77092;BME280;66032;48.252;11.638;2023-03-11T07:17:50;95024.84;;;4.66;60.32
77092;BME280;66032;48.252;11.638;2023-03-11T07:20:18;95044.94;;;4.85;61.84
77092;BME280;66032;48.252;11.638;2023-03-11T07:22:45;95043.81;;;5.15;65.13
77092;BME280;66032;48.252;11.638;2023-03-11T07:25:13;95044.28;;;5.46;58.53
77092;BME280;66032;48.252;11.638;2023-03-11T07:27:40;95055.66;;;5.64;58.20
77092;BME280;66032;48.252;11.638;2023-03-11T07:30:08;95055.47;;;5.93;58.45
77092;BME280;66032;48.252;11.638;2023-03-11T07:32:35;95063.28;;;6.46;55.16
77092;BME280;66032;48.252;11.638;2023-03-11T07:35:03;95067.88;;;7.46;54.81
77092;BME280;66032;48.252;11.638;2023-03-11T07:37:30;95066.28;;;7.61;55.17
77092;BME280;66032;48.252;11.638;2023-03-11T07:39:57;95073.06;;;7.80;53.57
77092;BME280;66032;48.252;11.638;2023-03-11T07:42:24;95071.63;;;8.83;49.55
77092;BME280;66032;48.252;11.638;2023-03-11T07:44:53;95078.78;;;9.91;46.42
77092;BME280;66032;48.252;11.638;2023-03-11T07:47:20;95071.00;;;11.39;43.29
77092;BME280;66032;48.252;11.638;2023-03-11T07:49:47;95083.03;;;12.86;42.63
77092;BME280;66032;48.252;11.638;2023-03-11T07:52:15;95079.72;;;14.48;39.31
77092;BME280;66032;48.252;11.638;2023-03-11T07:54:42;95067.47;;;15.90;35.24
77092;BME280;66032;48.252;11.638;2023-03-11T07:57:11;95073.50;;;16.17;34.07
77092;BME280;66032;48.252;11.638;2023-03-11T07:59:42;95074.16;;;16.13;33.55
77092;BME280;66032;48.252;11.638;2023-03-11T08:02:10;95067.81;;;16.77;32.28
77092;BME280;66032;48.252;11.638;2023-03-11T08:04:37;95068.28;;;17.85;31.26
77092;BME280;66032;48.252;11.638;2023-03-11T08:07:04;95084.19;;;19.17;33.93
77092;BME280;66032;48.252;11.638;2023-03-11T08:09:33;95073.59;;;20.32;28.26
77092;BME280;66032;48.252;11.638;2023-03-11T08:12:01;95071.91;;;20.71;27.97
77092;BME280;66032;48.252;11.638;2023-03-11T08:14:28;95071.38;;;21.70;25.88
77092;BME280;66032;48.252;11.638;2023-03-11T08:16:59;95069.19;;;22.49;25.12
77092;BME280;66032;48.252;11.638;2023-03-11T08:19:26;95065.47;;;22.55;25.60
77092;BME280;66032;48.252;11.638;2023-03-11T08:21:53;95067.09;;;21.90;24.63
77092;BME280;66032;48.252;11.638;2023-03-11T08:24:21;95069.44;;;21.65;26.69
77092;BME280;66032;48.252;11.638;2023-03-11T08:26:48;95081.94;;;20.76;26.87
77092;BME280;66032;48.252;11.638;2023-03-11T08:29:15;95072.09;;;20.25;27.79
77092;BME280;66032;48.252;11.638;2023-03-11T08:31:42;95087.72;;;19.29;28.61
77092;BME280;66032;48.252;11.638;2023-03-11T08:34:10;95086.59;;;17.88;28.15
77092;BME280;66032;48.252;11.638;2023-03-11T08:36:38;95092.84;;;17.38;31.51
77092;BME280;66032;48.252;11.638;2023-03-11T08:39:05;95096.72;;;16.68;30.93
77092;BME280;66032;48.252;11.638;2023-03-11T08:41:33;95096.75;;;16.61;30.31
77092;BME280;66032;48.252;11.638;2023-03-11T08:44:00;95100.28;;;16.87;31.17
77092;BME280;66032;48.252;11.638;2023-03-11T08:46:33;95107.06;;;16.51;31.03
77092;BME280;66032;48.252;11.638;2023-03-11T08:49:01;95108.94;;;16.51;30.42
77092;BME280;66032;48.252;11.638;2023-03-11T08:51:30;95115.94;;;17.39;29.21
77092;BME280;66032;48.252;11.638;2023-03-11T08:53:59;95105.94;;;18.08;30.40
77092;BME280;66032;48.252;11.638;2023-03-11T08:56:27;95115.91;;;19.50;27.87
77092;BME280;66032;48.252;11.638;2023-03-11T08:58:55;95107.31;;;20.63;26.55
77092;BME280;66032;48.252;11.638;2023-03-11T09:01:22;95112.94;;;20.90;25.20
77092;BME280;66032;48.252;11.638;2023-03-11T09:03:50;95110.22;;;21.18;24.86
77092;BME280;66032;48.252;11.638;2023-03-11T09:06:18;95106.13;;;20.71;25.39
77092;BME280;66032;48.252;11.638;2023-03-11T09:08:46;95112.56;;;20.41;26.40
77092;BME280;66032;48.252;11.638;2023-03-11T09:11:15;95111.41;;;20.37;26.34
77092;BME280;66032;48.252;11.638;2023-03-11T09:13:43;95114.66;;;21.25;25.95
77092;BME280;66032;48.252;11.638;2023-03-11T09:16:15;95124.41;;;22.14;24.01
77092;BME280;66032;48.252;11.638;2023-03-11T09:18:43;95122.47;;;22.75;23.05
77092;BME280;66032;48.252;11.638;2023-03-11T09:21:11;95121.22;;;23.68;23.28
77092;BME280;66032;48.252;11.638;2023-03-11T09:23:39;95114.66;;;22.57;23.08
77092;BME280;66032;48.252;11.638;2023-03-11T09:26:10;95116.78;;;23.30;23.11
77092;BME280;66032;48.252;11.638;2023-03-11T09:28:38;95111.66;;;22.53;23.94
77092;BME280;66032;48.252;11.638;2023-03-11T09:31:06;95119.69;;;21.71;24.98
77092;BME280;66032;48.252;11.638;2023-03-11T09:33:40;95116.56;;;21.12;26.41
77092;BME280;66032;48.252;11.638;2023-03-11T09:36:13;95119.00;;;20.17;26.92
77092;BME280;66032;48.252;11.638;2023-03-11T09:38:41;95124.84;;;19.21;28.29
77092;BME280;66032;48.252;11.638;2023-03-11T09:54:40;95121.31;;;17.15;28.78
77092;BME280;66032;48.252;11.638;2023-03-11T09:57:15;95132.94;;;17.95;28.87
77092;BME280;66032;48.252;11.638;2023-03-11T09:59:45;95135.50;;;18.56;28.08
77092;BME280;66032;48.252;11.638;2023-03-11T10:02:17;95133.31;;;18.83;27.48
77092;BME280;66032;48.252;11.638;2023-03-11T10:04:50;95139.16;;;18.62;29.24
77092;BME280;66032;48.252;11.638;2023-03-11T10:07:24;95144.09;;;17.24;29.15
77092;BME280;66032;48.252;11.638;2023-03-11T10:09:55;95154.00;;;16.92;31.95
77092;BME280;66032;48.252;11.638;2023-03-11T10:20:21;95158.31;;;17.74;29.92
77092;BME280;66032;48.252;11.638;2023-03-11T10:23:28;95147.84;;;17.66;29.20
77092;BME280;66032;48.252;11.638;2023-03-11T10:26:27;95146.75;;;16.23;33.61
77092;BME280;66032;48.252;11.638;2023-03-11T10:29:13;95154.63;;;16.56;30.48
77092;BME280;66032;48.252;11.638;2023-03-11T10:31:57;95165.25;;;16.69;29.39
77092;BME280;66032;48.252;11.638;2023-03-11T10:37:26;95176.50;;;15.62;32.54
77092;BME280;66032;48.252;11.638;2023-03-11T10:42:55;95171.34;;;14.27;32.73
77092;BME280;66032;48.252;11.638;2023-03-11T10:45:24;95171.34;;;13.86;35.26
77092;BME280;66032;48.252;11.638;2023-03-11T10:47:51;95166.38;;;13.77;34.99
77092;BME280;66032;48.252;11.638;2023-03-11T10:50:19;95166.56;;;13.41;34.83
77092;BME280;66032;48.252;11.638;2023-03-11T10:53:16;95173.38;;;13.01;35.64
77092;BME280;66032;48.252;11.638;2023-03-11T10:55:50;95177.50;;;13.03;34.31
77092;BME280;66032;48.252;11.638;2023-03-11T10:58:25;95170.66;;;12.51;36.24
77092;BME280;66032;48.252;11.638;2023-03-11T11:01:13;95170.84;;;12.50;35.65
77092;BME280;66032;48.252;11.638;2023-03-11T11:03:43;95174.22;;;11.64;38.15
77092;BME280;66032;48.252;11.638;2023-03-11T11:06:33;95177.38;;;11.82;36.74
77092;BME280;66032;48.252;11.638;2023-03-11T11:09:26;95181.66;;;11.54;36.20
77092;BME280;66032;48.252;11.638;2023-03-11T11:12:13;95189.13;;;11.21;36.26
77092;BME280;66032;48.252;11.638;2023-03-11T11:14:42;95191.69;;;11.29;37.40
77092;BME280;66032;48.252;11.638;2023-03-11T11:17:26;95187.16;;;11.15;38.27
77092;BME280;66032;48.252;11.638;2023-03-11T11:19:55;95180.59;;;11.11;39.28
77092;BME280;66032;48.252;11.638;2023-03-11T11:22:24;95180.03;;;11.15;38.53
77092;BME280;66032;48.252;11.638;2023-03-11T11:24:54;95189.13;;;10.98;38.40
77092;BME280;66032;48.252;11.638;2023-03-11T11:27:24;95189.94;;;11.21;39.15
77092;BME280;66032;48.252;11.638;2023-03-11T11:30:21;95184.63;;;10.61;39.41
77092;BME280;66032;48.252;11.638;2023-03-11T11:32:49;95193.28;;;11.00;39.03
77092;BME280;66032;48.252;11.638;2023-03-11T11:35:23;95176.47;;;10.40;41.43
77092;BME280;66032;48.252;11.638;2023-03-11T11:37:53;95175.81;;;10.69;39.17
77092;BME280;66032;48.252;11.638;2023-03-11T11:40:28;95182.38;;;10.73;41.70
77092;BME280;66032;48.252;11.638;2023-03-11T11:43:03;95165.13;;;10.77;38.46
77092;BME280;66032;48.252;11.638;2023-03-11T11:48:33;95177.63;;;10.68;39.10
77092;BME280;66032;48.252;11.638;2023-03-11T11:51:12;95168.31;;;10.72;39.71
77092;BME280;66032;48.252;11.638;2023-03-11T11:54:12;95164.38;;;10.45;39.25
77092;BME280;66032;48.252;11.638;2023-03-11T11:56:44;95171.47;;;10.14;40.18
77092;BME280;66032;48.252;11.638;2023-03-11T11:59:21;95165.59;;;10.04;41.21
77092;BME280;66032;48.252;11.638;2023-03-11T12:04:31;95162.13;;;9.56;42.14
77092;BME280;66032;48.252;11.638;2023-03-11T12:09:51;95171.06;;;9.55;42.70
77092;BME280;66032;48.252;11.638;2023-03-11T12:15:19;95161.31;;;9.56;40.88
77092;BME280;66032;48.252;11.638;2023-03-11T12:17:49;95157.50;;;9.58;40.84
77092;BME280;66032;48.252;11.638;2023-03-11T12:20:26;95162.84;;;9.42;41.71
77092;BME280;66032;48.252;11.638;2023-03-11T12:23:10;95155.44;;;9.21;40.55
77092;BME280;66032;48.252;11.638;2023-03-11T12:28:36;95165.72;;;9.08;45.95
77092;BME280;66032;48.252;11.638;2023-03-11T12:31:04;95153.53;;;8.99;42.78
77092;BME280;66032;48.252;11.638;2023-03-11T12:36:04;95161.97;;;8.78;44.30
77092;BME280;66032;48.252;11.638;2023-03-11T12:38:38;95154.38;;;8.67;42.98
77092;BME280;66032;48.252;11.638;2023-03-11T12:44:02;95153.53;;;8.50;44.79
77092;BME280;66032;48.252;11.638;2023-03-11T12:49:39;95147.59;;;8.72;42.31
77092;BME280;66032;48.252;11.638;2023-03-11T12:54:39;95138.38;;;8.60;43.86
77092;BME280;66032;48.252;11.638;2023-03-11T13:08:20;95139.81;;;7.72;47.84
77092;BME280;66032;48.252;11.638;2023-03-11T13:10:50;95138.94;;;7.55;46.82
77092;BME280;66032;48.252;11.638;2023-03-11T13:15:51;95137.47;;;7.19;47.92
77092;BME280;66032;48.252;11.638;2023-03-11T13:18:27;95153.03;;;7.04;48.66
77092;BME280;66032;48.252;11.638;2023-03-11T13:20:57;95154.13;;;6.94;49.60
77092;BME280;66032;48.252;11.638;2023-03-11T13:23:34;95152.81;;;6.72;48.87
77092;BME280;66032;48.252;11.638;2023-03-11T13:43:10;95167.09;;;6.43;50.04
77092;BME280;66032;48.252;11.638;2023-03-11T13:45:38;95171.28;;;6.36;51.31
77092;BME280;66032;48.252;11.638;2023-03-11T13:48:29;95172.56;;;6.32;49.74
77092;BME280;66032;48.252;11.638;2023-03-11T13:51:06;95172.72;;;6.31;50.23
77092;BME280;66032;48.252;11.638;2023-03-11T13:53:58;95181.06;;;6.26;51.28
77092;BME280;66032;48.252;11.638;2023-03-11T13:56:32;95182.88;;;6.26;49.75
77092;BME280;66032;48.252;11.638;2023-03-11T13:59:22;95182.03;;;6.25;51.15
77092;BME280;66032;48.252;11.638;2023-03-11T14:04:29;95181.22;;;6.25;49.73
77092;BME280;66032;48.252;11.638;2023-03-11T14:06:58;95180.03;;;6.19;49.46
77092;BME280;66032;48.252;11.638;2023-03-11T14:09:27;95185.94;;;6.21;49.03
77092;BME280;66032;48.252;11.638;2023-03-11T14:12:03;95190.56;;;6.19;51.34
77092;BME280;66032;48.252;11.638;2023-03-11T14:17:15;95186.91;;;6.20;49.84
77092;BME280;66032;48.252;11.638;2023-03-11T14:19:43;95186.47;;;6.07;49.43
77092;BME280;66032;48.252;11.638;2023-03-11T14:22:27;95183.47;;;6.02;48.90
77092;BME280;66032;48.252;11.638;2023-03-11T14:24:57;95174.94;;;5.90;49.92
77092;BME280;66032;48.252;11.638;2023-03-11T14:27:24;95184.06;;;5.86;50.82
77092;BME280;66032;48.252;11.638;2023-03-11T14:29:52;95176.91;;;5.79;49.85
77092;BME280;66032;48.252;11.638;2023-03-11T14:32:33;95174.50;;;5.67;50.79
77092;BME280;66032;48.252;11.638;2023-03-11T14:35:00;95182.81;;;5.63;51.07
77092;BME280;66032;48.252;11.638;2023-03-11T14:37:33;95190.00;;;5.61;53.32
77092;BME280;66032;48.252;11.638;2023-03-11T14:40:01;95180.03;;;5.64;51.52
77092;BME280;66032;48.252;11.638;2023-03-11T14:42:37;95192.38;;;5.64;50.44
77092;BME280;66032;48.252;11.638;2023-03-11T14:45:11;95194.06;;;5.55;50.30
77092;BME280;66032;48.252;11.638;2023-03-11T14:50:30;95199.22;;;5.47;52.22
77092;BME280;66032;48.252;11.638;2023-03-11T14:55:56;95198.88;;;5.32;53.21